METAR Data
IDs: Format: Raw Decoded Include TAF

Data at: 0653 UTC 11 Dec 2018

PASX 110556Z AUTO 07005KT 10SM BKN065 M02/M06 A2860 RMK AO2 SLP695 T10171056 11017 21028 56026 FZRANO
PASX 110456Z AUTO 07005KT 10SM CLR M02/M06 A2862 RMK AO2 SLP702 T10221056 FZRANO
PASX 110356Z AUTO 06008KT 10SM CLR M03/M06 A2865 RMK AO2 SLP712 T10281056 FZRANO
PASX 110256Z AUTO 07006KT 10SM CLR M03/M06 A2868 RMK AO2 SLP720 T10281056 56038 FZRANO
PASX 110156Z AUTO 06010KT 10SM FEW015 SCT100 M03/M06 A2871 RMK AO2 SLP732 T10281061 FZRANO
PASX 110056Z AUTO 05011G15KT 10SM SCT075 M02/M06 A2875 RMK AO2 SLP746 T10221061 FZRANO
PASX 102356Z AUTO 05012G17KT 10SM BKN090 M02/M06 A2879 RMK AO2 SLP759 T10221056 11022 21039 58034 FZRANO
PASX 102256Z AUTO VRB06G14KT 10SM OVC085 M03/M06 A2883 RMK AO2 SLP772 T10281056 FZRANO
PASX 102156Z AUTO 04007KT 10SM OVC065 M03/M05 A2886 RMK AO2 SLP784 T10281050 FZRANO
PASX 102056Z AUTO 04007KT 10SM CLR M03/M05 A2889 RMK AO2 SLP793 T10331050 58023 FZRANO
PASX 101956Z AUTO 04006KT 10SM CLR M03/M06 A2892 RMK AO2 SLP803 T10331056 FZRANO
PASX 101856Z AUTO 05007G14KT 10SM CLR M04/M06 A2894 RMK AO2 SLP809 T10391056 FZRANO
PASX 101756Z AUTO 05007KT 10SM OVC065 M04/M06 A2896 RMK AO2 SLP816 60000 T10391056 11022 21039 58015 FZRANO
PASX 101656Z AUTO 05006KT 10SM CLR M04/M06 A2898 RMK AO2 SNE15 SLP824 P0000 T10391061 FZRANO
PASX 101556Z AUTO 04005KT 10SM -SN BKN065 OVC080 M03/M06 A2900 RMK AO2 SNE18B55 SLP829 P0000 T10331061 FZRANO
PASX 101456Z AUTO 05008KT 9SM -SN BKN070 M03/M06 A2900 RMK AO2 SNB27 SLP831 P0000 60000 T10331061 56015 FZRANO
PASX 101356Z AUTO 06006G15KT 10SM BKN070 M03/M06 A2902 RMK AO2 SLP835 T10331061 FZRANO
PASX 101256Z AUTO 05009G14KT 360V070 10SM FEW075 M03/M06 A2903 RMK AO2 SNE01 SLP839 P0000 T10331061 FZRANO
PASX 101156Z AUTO 03008G17KT 9SM -SN FEW035 OVC043 M02/M05 A2905 RMK AO2 SNE05B36 SLP847 P0000 60000 T10221050 11022 21033 58013 FZRANO
PASX 101056Z AUTO 03009G15KT 9SM -SN OVC060 M03/M05 A2906 RMK AO2 SNB0957E06B47 SLP851 P0000 T10281050 FZRANO
PASX 100956Z AUTO 02009KT 10SM OVC065 M03/M05 A2908 RMK AO2 SLP856 T10281050 FZRANO
PASX 100856Z AUTO 03007KT 350V050 10SM OVC060 M03/M04 A2909 RMK AO2 SNB0759E44 SLP860 P0000 60000 T10281044 410171050 50000 FZRANO
PASX 100756Z AUTO VRB06KT 10SM OVC044 M02/M04 A2909 RMK AO2 SLP860 T10221044 FZRANO
PASX 100656Z AUTO 03007KT 10SM CLR M03/M06 A2909 RMK AO2 SLP860 T10281056 FZRANO
PASX 100556Z AUTO 04004KT 10SM CLR M03/M06 A2909 RMK AO2 SLP859 T10331056 11033 21050 56008 FZRANO
PASX 100456Z AUTO 02004KT 10SM SCT070 M03/M07 A2910 RMK AO2 SLP862 T10331067 FZRANO
PASX 100356Z AUTO 00000KT 10SM SCT085 M04/M07 A2910 RMK AO2 SLP864 T10391072 FZRANO
PASX 100256Z AUTO 00000KT 10SM BKN075 BKN120 M04/M07 A2911 RMK AO2 SLP868 T10391072 56013 FZRANO
PASX 100156Z AUTO 00000KT 10SM CLR M04/M07 A2912 RMK AO2 SLP872 T10441067 FZRANO
PASX 100056Z AUTO 06003KT 10SM CLR M04/M07 A2914 RMK AO2 SLP876 T10441072 FZRANO
PASX 092356Z AUTO 09004KT 10SM CLR M04/M07 A2915 RMK AO2 SLP881 T10391067 11017 21039 58002 FZRANO
PASX 092256Z AUTO 10007KT 10SM CLR M03/M06 A2916 RMK AO2 SLP884 T10281061 FZRANO
PASX 092156Z AUTO 10005KT 10SM CLR M02/M06 A2917 RMK AO2 SLP886 T10221056 FZRANO
PASX 092056Z AUTO 11003KT 10SM CLR M02/M06 A2916 RMK AO2 SLP884 T10221056 51003 FZRANO
PASX 091956Z AUTO 17004KT 10SM CLR M03/M06 A2916 RMK AO2 SLP884 T10281056 FZRANO
PASX 091856Z AUTO 16005KT 10SM CLR M03/M06 A2915 RMK AO2 SLP881 T10331056 FZRANO